sensor_id;sensor_type;location;lat;lon;timestamp;P1;durP1;ratioP1;P2;durP2;ratioP2
8317;SDS011;4196;48.926;8.964;2023-08-24T00:01:40;7.13;;;5.60;;
8317;SDS011;4196;48.926;8.964;2023-08-24T00:04:26;6.83;;;5.60;;
8317;SDS011;4196;48.926;8.964;2023-08-24T00:07:12;6.30;;;5.20;;
8317;SDS011;4196;48.926;8.964;2023-08-24T00:09:59;6.93;;;5.10;;
8317;SDS011;4196;48.926;8.964;2023-08-24T00:12:45;12.60;;;5.70;;
8317;SDS011;4196;48.926;8.964;2023-08-24T00:15:32;7.13;;;5.70;;
8317;SDS011;4196;48.926;8.964;2023-08-24T00:18:19;5.87;;;5.27;;
8317;SDS011;4196;48.926;8.964;2023-08-24T00:21:08;7.20;;;5.73;;
8317;SDS011;4196;48.926;8.964;2023-08-24T00:23:54;6.60;;;5.90;;
8317;SDS011;4196;48.926;8.964;2023-08-24T00:26:41;7.40;;;6.07;;
8317;SDS011;4196;48.926;8.964;2023-08-24T00:29:28;7.70;;;6.00;;
8317;SDS011;4196;48.926;8.964;2023-08-24T00:32:14;7.47;;;5.63;;
8317;SDS011;4196;48.926;8.964;2023-08-24T00:35:01;7.23;;;5.73;;
8317;SDS011;4196;48.926;8.964;2023-08-24T00:37:54;7.80;;;5.23;;
8317;SDS011;4196;48.926;8.964;2023-08-24T00:40:41;6.37;;;5.67;;
8317;SDS011;4196;48.926;8.964;2023-08-24T00:43:28;6.80;;;5.73;;
8317;SDS011;4196;48.926;8.964;2023-08-24T00:46:14;7.20;;;5.87;;
8317;SDS011;4196;48.926;8.964;2023-08-24T00:49:01;8.53;;;5.93;;
8317;SDS011;4196;48.926;8.964;2023-08-24T00:51:49;7.80;;;5.70;;
8317;SDS011;4196;48.926;8.964;2023-08-24T00:54:36;7.23;;;5.60;;
8317;SDS011;4196;48.926;8.964;2023-08-24T00:57:26;7.43;;;6.40;;
8317;SDS011;4196;48.926;8.964;2023-08-24T01:00:13;8.73;;;6.27;;
8317;SDS011;4196;48.926;8.964;2023-08-24T01:03:00;8.57;;;5.70;;
8317;SDS011;4196;48.926;8.964;2023-08-24T01:05:46;6.37;;;5.37;;
8317;SDS011;4196;48.926;8.964;2023-08-24T01:08:33;8.30;;;5.90;;
8317;SDS011;4196;48.926;8.964;2023-08-24T01:11:25;6.33;;;5.73;;
8317;SDS011;4196;48.926;8.964;2023-08-24T01:17:29;7.47;;;5.97;;
8317;SDS011;4196;48.926;8.964;2023-08-24T01:20:16;8.13;;;6.03;;
8317;SDS011;4196;48.926;8.964;2023-08-24T01:23:04;5.97;;;5.20;;
8317;SDS011;4196;48.926;8.964;2023-08-24T01:25:53;6.53;;;5.83;;
8317;SDS011;4196;48.926;8.964;2023-08-24T01:28:59;7.13;;;5.73;;
8317;SDS011;4196;48.926;8.964;2023-08-24T01:31:48;8.67;;;5.83;;
8317;SDS011;4196;48.926;8.964;2023-08-24T01:34:36;7.60;;;5.77;;
8317;SDS011;4196;48.926;8.964;2023-08-24T01:37:24;6.33;;;5.73;;
8317;SDS011;4196;48.926;8.964;2023-08-24T01:43:07;9.77;;;6.07;;
8317;SDS011;4196;48.926;8.964;2023-08-24T01:45:55;8.50;;;5.83;;
8317;SDS011;4196;48.926;8.964;2023-08-24T01:48:45;9.03;;;6.63;;
8317;SDS011;4196;48.926;8.964;2023-08-24T01:51:33;6.83;;;6.03;;
8317;SDS011;4196;48.926;8.964;2023-08-24T01:54:20;8.93;;;6.60;;
8317;SDS011;4196;48.926;8.964;2023-08-24T01:57:07;9.87;;;6.27;;
8317;SDS011;4196;48.926;8.964;2023-08-24T01:59:53;7.90;;;6.17;;
8317;SDS011;4196;48.926;8.964;2023-08-24T02:02:40;9.13;;;6.50;;
8317;SDS011;4196;48.926;8.964;2023-08-24T02:05:28;8.87;;;6.40;;
8317;SDS011;4196;48.926;8.964;2023-08-24T02:08:15;7.40;;;6.00;;
8317;SDS011;4196;48.926;8.964;2023-08-24T02:11:01;8.57;;;6.63;;
8317;SDS011;4196;48.926;8.964;2023-08-24T02:13:51;6.67;;;6.07;;
8317;SDS011;4196;48.926;8.964;2023-08-24T02:16:37;6.60;;;6.00;;
8317;SDS011;4196;48.926;8.964;2023-08-24T02:19:24;6.93;;;5.87;;
8317;SDS011;4196;48.926;8.964;2023-08-24T02:22:11;8.33;;;6.60;;
8317;SDS011;4196;48.926;8.964;2023-08-24T02:24:57;8.77;;;6.23;;
8317;SDS011;4196;48.926;8.964;2023-08-24T02:27:43;8.50;;;6.67;;
8317;SDS011;4196;48.926;8.964;2023-08-24T02:30:30;8.77;;;6.57;;
8317;SDS011;4196;48.926;8.964;2023-08-24T02:33:16;10.20;;;6.33;;
8317;SDS011;4196;48.926;8.964;2023-08-24T02:36:03;8.27;;;6.10;;
8317;SDS011;4196;48.926;8.964;2023-08-24T02:38:49;7.50;;;6.17;;
8317;SDS011;4196;48.926;8.964;2023-08-24T02:41:37;9.00;;;6.40;;
8317;SDS011;4196;48.926;8.964;2023-08-24T02:44:23;9.07;;;6.80;;
8317;SDS011;4196;48.926;8.964;2023-08-24T02:47:10;8.83;;;6.50;;
8317;SDS011;4196;48.926;8.964;2023-08-24T02:49:56;8.73;;;6.63;;
8317;SDS011;4196;48.926;8.964;2023-08-24T02:52:43;11.30;;;7.10;;
8317;SDS011;4196;48.926;8.964;2023-08-24T02:55:31;7.57;;;6.40;;
8317;SDS011;4196;48.926;8.964;2023-08-24T02:58:18;9.50;;;6.63;;
8317;SDS011;4196;48.926;8.964;2023-08-24T03:01:05;11.37;;;6.37;;
8317;SDS011;4196;48.926;8.964;2023-08-24T03:03:53;10.03;;;6.40;;
8317;SDS011;4196;48.926;8.964;2023-08-24T03:06:39;8.20;;;6.07;;
8317;SDS011;4196;48.926;8.964;2023-08-24T03:09:26;8.53;;;6.47;;
8317;SDS011;4196;48.926;8.964;2023-08-24T03:12:13;7.70;;;6.90;;
8317;SDS011;4196;48.926;8.964;2023-08-24T03:14:59;7.00;;;6.30;;
8317;SDS011;4196;48.926;8.964;2023-08-24T03:17:46;7.73;;;6.00;;
8317;SDS011;4196;48.926;8.964;2023-08-24T03:20:35;9.30;;;6.67;;
8317;SDS011;4196;48.926;8.964;2023-08-24T03:23:22;6.90;;;5.93;;
8317;SDS011;4196;48.926;8.964;2023-08-24T03:26:08;7.33;;;5.90;;
8317;SDS011;4196;48.926;8.964;2023-08-24T03:28:54;8.27;;;6.70;;
8317;SDS011;4196;48.926;8.964;2023-08-24T03:31:42;8.63;;;6.40;;
8317;SDS011;4196;48.926;8.964;2023-08-24T03:34:29;8.20;;;6.83;;
8317;SDS011;4196;48.926;8.964;2023-08-24T03:37:17;7.70;;;6.90;;
8317;SDS011;4196;48.926;8.964;2023-08-24T03:40:04;8.60;;;7.13;;
8317;SDS011;4196;48.926;8.964;2023-08-24T03:42:52;8.37;;;7.03;;
8317;SDS011;4196;48.926;8.964;2023-08-24T03:45:40;7.57;;;6.80;;
8317;SDS011;4196;48.926;8.964;2023-08-24T03:48:29;8.97;;;6.57;;
8317;SDS011;4196;48.926;8.964;2023-08-24T03:51:16;7.60;;;6.80;;
8317;SDS011;4196;48.926;8.964;2023-08-24T03:54:02;8.20;;;6.47;;
8317;SDS011;4196;48.926;8.964;2023-08-24T03:56:49;7.07;;;6.37;;
8317;SDS011;4196;48.926;8.964;2023-08-24T03:59:36;7.43;;;6.73;;
8317;SDS011;4196;48.926;8.964;2023-08-24T04:02:22;7.63;;;6.87;;
8317;SDS011;4196;48.926;8.964;2023-08-24T04:05:09;8.50;;;6.77;;
8317;SDS011;4196;48.926;8.964;2023-08-24T04:07:55;8.40;;;6.10;;
8317;SDS011;4196;48.926;8.964;2023-08-24T04:10:44;8.10;;;6.50;;
8317;SDS011;4196;48.926;8.964;2023-08-24T04:13:30;8.13;;;6.93;;
8317;SDS011;4196;48.926;8.964;2023-08-24T04:16:17;9.73;;;6.67;;
8317;SDS011;4196;48.926;8.964;2023-08-24T04:19:03;6.67;;;5.93;;
8317;SDS011;4196;48.926;8.964;2023-08-24T04:21:50;7.50;;;6.77;;
8317;SDS011;4196;48.926;8.964;2023-08-24T04:24:36;7.83;;;6.27;;
8317;SDS011;4196;48.926;8.964;2023-08-24T04:27:23;7.77;;;6.27;;
8317;SDS011;4196;48.926;8.964;2023-08-24T04:30:09;8.80;;;6.93;;
8317;SDS011;4196;48.926;8.964;2023-08-24T04:32:58;8.33;;;6.80;;
8317;SDS011;4196;48.926;8.964;2023-08-24T04:35:49;7.80;;;6.60;;
8317;SDS011;4196;48.926;8.964;2023-08-24T04:38:36;8.50;;;7.00;;
8317;SDS011;4196;48.926;8.964;2023-08-24T04:41:23;8.93;;;6.83;;
8317;SDS011;4196;48.926;8.964;2023-08-24T04:44:09;8.27;;;6.43;;
8317;SDS011;4196;48.926;8.964;2023-08-24T04:46:55;11.83;;;7.20;;
8317;SDS011;4196;48.926;8.964;2023-08-24T04:49:42;12.87;;;7.70;;
8317;SDS011;4196;48.926;8.964;2023-08-24T04:52:28;8.53;;;7.53;;
8317;SDS011;4196;48.926;8.964;2023-08-24T04:55:15;8.50;;;7.53;;
8317;SDS011;4196;48.926;8.964;2023-08-24T04:58:01;8.73;;;6.87;;
8317;SDS011;4196;48.926;8.964;2023-08-24T05:00:48;11.47;;;8.03;;
8317;SDS011;4196;48.926;8.964;2023-08-24T05:03:35;9.70;;;7.50;;
8317;SDS011;4196;48.926;8.964;2023-08-24T05:06:21;8.70;;;7.77;;
8317;SDS011;4196;48.926;8.964;2023-08-24T05:09:08;9.57;;;7.80;;
8317;SDS011;4196;48.926;8.964;2023-08-24T05:11:54;11.13;;;7.80;;
8317;SDS011;4196;48.926;8.964;2023-08-24T05:14:41;10.00;;;7.47;;
8317;SDS011;4196;48.926;8.964;2023-08-24T05:17:27;10.83;;;8.10;;
8317;SDS011;4196;48.926;8.964;2023-08-24T05:20:14;9.53;;;7.10;;
8317;SDS011;4196;48.926;8.964;2023-08-24T05:23:01;8.23;;;7.17;;
8317;SDS011;4196;48.926;8.964;2023-08-24T05:25:47;10.83;;;7.73;;
8317;SDS011;4196;48.926;8.964;2023-08-24T05:28:34;9.47;;;7.87;;
8317;SDS011;4196;48.926;8.964;2023-08-24T05:31:20;8.73;;;7.40;;
8317;SDS011;4196;48.926;8.964;2023-08-24T05:34:07;13.10;;;7.03;;
8317;SDS011;4196;48.926;8.964;2023-08-24T05:36:53;8.37;;;7.10;;
8317;SDS011;4196;48.926;8.964;2023-08-24T05:39:40;10.97;;;7.60;;
8317;SDS011;4196;48.926;8.964;2023-08-24T05:42:26;8.47;;;7.37;;
8317;SDS011;4196;48.926;8.964;2023-08-24T05:45:13;7.60;;;6.80;;
8317;SDS011;4196;48.926;8.964;2023-08-24T05:47:59;9.97;;;7.10;;
8317;SDS011;4196;48.926;8.964;2023-08-24T05:50:46;8.70;;;6.90;;
8317;SDS011;4196;48.926;8.964;2023-08-24T05:53:33;7.50;;;6.57;;
8317;SDS011;4196;48.926;8.964;2023-08-24T05:56:19;10.57;;;7.90;;
8317;SDS011;4196;48.926;8.964;2023-08-24T05:59:06;10.50;;;7.20;;
8317;SDS011;4196;48.926;8.964;2023-08-24T06:01:52;14.07;;;7.63;;
8317;SDS011;4196;48.926;8.964;2023-08-24T06:04:39;11.00;;;7.73;;
8317;SDS011;4196;48.926;8.964;2023-08-24T06:07:25;10.90;;;7.60;;
8317;SDS011;4196;48.926;8.964;2023-08-24T06:10:12;8.53;;;7.63;;
8317;SDS011;4196;48.926;8.964;2023-08-24T06:12:58;14.73;;;7.87;;
8317;SDS011;4196;48.926;8.964;2023-08-24T06:15:47;10.93;;;7.27;;
8317;SDS011;4196;48.926;8.964;2023-08-24T06:18:34;10.23;;;7.20;;
8317;SDS011;4196;48.926;8.964;2023-08-24T06:21:21;7.77;;;7.00;;
8317;SDS011;4196;48.926;8.964;2023-08-24T06:24:07;7.40;;;6.60;;
8317;SDS011;4196;48.926;8.964;2023-08-24T06:26:54;9.40;;;7.33;;
8317;SDS011;4196;48.926;8.964;2023-08-24T06:29:43;9.93;;;7.20;;
8317;SDS011;4196;48.926;8.964;2023-08-24T06:32:30;8.53;;;6.70;;
8317;SDS011;4196;48.926;8.964;2023-08-24T06:35:16;12.77;;;7.53;;
8317;SDS011;4196;48.926;8.964;2023-08-24T06:38:03;12.30;;;7.37;;
8317;SDS011;4196;48.926;8.964;2023-08-24T06:40:50;8.17;;;6.77;;
8317;SDS011;4196;48.926;8.964;2023-08-24T06:43:36;11.43;;;6.83;;
8317;SDS011;4196;48.926;8.964;2023-08-24T06:46:25;8.73;;;6.90;;
8317;SDS011;4196;48.926;8.964;2023-08-24T06:49:11;10.83;;;7.10;;
8317;SDS011;4196;48.926;8.964;2023-08-24T06:51:58;10.03;;;7.50;;
8317;SDS011;4196;48.926;8.964;2023-08-24T06:54:44;7.30;;;6.63;;
8317;SDS011;4196;48.926;8.964;2023-08-24T06:57:30;9.20;;;7.63;;
8317;SDS011;4196;48.926;8.964;2023-08-24T07:00:17;9.00;;;7.13;;
8317;SDS011;4196;48.926;8.964;2023-08-24T07:03:08;8.50;;;7.43;;
8317;SDS011;4196;48.926;8.964;2023-08-24T07:05:55;10.73;;;8.40;;
8317;SDS011;4196;48.926;8.964;2023-08-24T07:08:41;8.60;;;7.30;;
8317;SDS011;4196;48.926;8.964;2023-08-24T07:11:28;9.00;;;8.10;;
8317;SDS011;4196;48.926;8.964;2023-08-24T07:14:14;9.33;;;7.57;;
8317;SDS011;4196;48.926;8.964;2023-08-24T07:17:00;12.40;;;8.33;;
8317;SDS011;4196;48.926;8.964;2023-08-24T07:19:47;11.27;;;7.70;;
8317;SDS011;4196;48.926;8.964;2023-08-24T07:22:38;8.53;;;7.20;;
8317;SDS011;4196;48.926;8.964;2023-08-24T07:25:25;9.87;;;7.23;;
8317;SDS011;4196;48.926;8.964;2023-08-24T07:28:12;8.50;;;7.40;;
8317;SDS011;4196;48.926;8.964;2023-08-24T07:31:06;10.63;;;6.97;;
8317;SDS011;4196;48.926;8.964;2023-08-24T07:33:57;9.57;;;7.33;;
8317;SDS011;4196;48.926;8.964;2023-08-24T07:36:44;8.30;;;6.17;;
8317;SDS011;4196;48.926;8.964;2023-08-24T07:39:33;10.97;;;7.37;;
8317;SDS011;4196;48.926;8.964;2023-08-24T07:42:20;9.10;;;6.83;;
8317;SDS011;4196;48.926;8.964;2023-08-24T07:45:07;9.93;;;6.20;;
8317;SDS011;4196;48.926;8.964;2023-08-24T07:47:54;6.60;;;5.83;;
8317;SDS011;4196;48.926;8.964;2023-08-24T07:50:41;6.93;;;5.00;;
8317;SDS011;4196;48.926;8.964;2023-08-24T07:53:28;6.73;;;4.73;;
8317;SDS011;4196;48.926;8.964;2023-08-24T07:56:14;9.60;;;5.37;;
8317;SDS011;4196;48.926;8.964;2023-08-24T07:59:01;8.40;;;5.33;;
8317;SDS011;4196;48.926;8.964;2023-08-24T08:01:47;6.50;;;4.33;;
8317;SDS011;4196;48.926;8.964;2023-08-24T08:04:34;6.87;;;4.73;;
8317;SDS011;4196;48.926;8.964;2023-08-24T08:07:20;6.10;;;3.93;;
8317;SDS011;4196;48.926;8.964;2023-08-24T08:10:07;7.30;;;4.00;;
8317;SDS011;4196;48.926;8.964;2023-08-24T08:12:54;6.00;;;3.77;;
8317;SDS011;4196;48.926;8.964;2023-08-24T08:15:40;5.23;;;4.03;;
8317;SDS011;4196;48.926;8.964;2023-08-24T08:18:27;6.20;;;4.67;;
8317;SDS011;4196;48.926;8.964;2023-08-24T08:21:17;5.27;;;3.70;;
8317;SDS011;4196;48.926;8.964;2023-08-24T08:24:07;6.60;;;4.20;;
8317;SDS011;4196;48.926;8.964;2023-08-24T08:26:53;4.93;;;4.33;;
8317;SDS011;4196;48.926;8.964;2023-08-24T08:29:40;5.67;;;3.90;;
8317;SDS011;4196;48.926;8.964;2023-08-24T08:32:26;8.00;;;5.10;;
8317;SDS011;4196;48.926;8.964;2023-08-24T08:35:13;6.93;;;4.63;;
8317;SDS011;4196;48.926;8.964;2023-08-24T08:37:59;5.80;;;4.10;;
8317;SDS011;4196;48.926;8.964;2023-08-24T08:40:46;4.27;;;3.63;;
8317;SDS011;4196;48.926;8.964;2023-08-24T08:43:35;7.07;;;4.67;;
8317;SDS011;4196;48.926;8.964;2023-08-24T08:46:24;7.80;;;4.50;;
8317;SDS011;4196;48.926;8.964;2023-08-24T08:49:11;5.40;;;4.00;;
8317;SDS011;4196;48.926;8.964;2023-08-24T08:52:04;7.17;;;4.60;;
8317;SDS011;4196;48.926;8.964;2023-08-24T08:54:52;4.38;;;3.88;;
8317;SDS011;4196;48.926;8.964;2023-08-24T08:57:38;6.35;;;3.97;;
8317;SDS011;4196;48.926;8.964;2023-08-24T09:00:28;5.30;;;3.50;;
8317;SDS011;4196;48.926;8.964;2023-08-24T09:03:16;6.10;;;4.07;;
8317;SDS011;4196;48.926;8.964;2023-08-24T09:06:05;4.38;;;3.78;;
8317;SDS011;4196;48.926;8.964;2023-08-24T09:08:51;5.00;;;3.70;;
8317;SDS011;4196;48.926;8.964;2023-08-24T09:11:38;5.95;;;3.75;;
8317;SDS011;4196;48.926;8.964;2023-08-24T09:14:26;3.85;;;3.45;;
8317;SDS011;4196;48.926;8.964;2023-08-24T09:17:20;4.93;;;3.67;;
8317;SDS011;4196;48.926;8.964;2023-08-24T09:20:08;5.70;;;3.45;;
8317;SDS011;4196;48.926;8.964;2023-08-24T09:22:56;15.07;;;5.13;;
8317;SDS011;4196;48.926;8.964;2023-08-24T09:25:47;8.63;;;5.47;;
8317;SDS011;4196;48.926;8.964;2023-08-24T09:28:33;6.88;;;3.75;;
8317;SDS011;4196;48.926;8.964;2023-08-24T09:31:22;5.07;;;3.70;;
8317;SDS011;4196;48.926;8.964;2023-08-24T09:34:10;4.20;;;3.40;;
8317;SDS011;4196;48.926;8.964;2023-08-24T09:36:57;4.68;;;3.58;;
8317;SDS011;4196;48.926;8.964;2023-08-24T09:39:44;6.30;;;3.40;;
8317;SDS011;4196;48.926;8.964;2023-08-24T09:42:30;7.75;;;3.47;;
8317;SDS011;4196;48.926;8.964;2023-08-24T09:45:18;6.57;;;3.38;;
8317;SDS011;4196;48.926;8.964;2023-08-24T09:48:05;4.93;;;3.50;;
8317;SDS011;4196;48.926;8.964;2023-08-24T09:50:52;6.40;;;3.42;;
8317;SDS011;4196;48.926;8.964;2023-08-24T09:53:38;6.43;;;3.97;;
8317;SDS011;4196;48.926;8.964;2023-08-24T09:56:28;5.32;;;3.72;;
8317;SDS011;4196;48.926;8.964;2023-08-24T09:59:15;5.38;;;3.65;;
8317;SDS011;4196;48.926;8.964;2023-08-24T10:02:04;4.30;;;3.85;;
8317;SDS011;4196;48.926;8.964;2023-08-24T10:05:02;6.30;;;3.53;;
8317;SDS011;4196;48.926;8.964;2023-08-24T10:07:52;4.43;;;3.72;;
8317;SDS011;4196;48.926;8.964;2023-08-24T10:10:41;5.13;;;3.63;;
8317;SDS011;4196;48.926;8.964;2023-08-24T10:16:53;5.72;;;3.75;;
8317;SDS011;4196;48.926;8.964;2023-08-24T10:19:41;4.40;;;3.75;;
8317;SDS011;4196;48.926;8.964;2023-08-24T10:22:31;4.63;;;3.50;;
8317;SDS011;4196;48.926;8.964;2023-08-24T10:25:25;6.18;;;3.83;;
8317;SDS011;4196;48.926;8.964;2023-08-24T10:28:14;4.93;;;3.70;;
8317;SDS011;4196;48.926;8.964;2023-08-24T10:31:04;4.85;;;3.60;;
8317;SDS011;4196;48.926;8.964;2023-08-24T10:33:51;4.20;;;3.80;;
8317;SDS011;4196;48.926;8.964;2023-08-24T10:36:40;5.78;;;3.30;;
8317;SDS011;4196;48.926;8.964;2023-08-24T10:39:27;4.93;;;4.13;;
8317;SDS011;4196;48.926;8.964;2023-08-24T10:42:15;6.53;;;3.60;;
8317;SDS011;4196;48.926;8.964;2023-08-24T10:45:01;5.43;;;3.60;;
8317;SDS011;4196;48.926;8.964;2023-08-24T10:47:48;5.60;;;4.03;;
8317;SDS011;4196;48.926;8.964;2023-08-24T10:50:40;6.25;;;4.20;;
8317;SDS011;4196;48.926;8.964;2023-08-24T10:53:39;6.43;;;3.80;;
8317;SDS011;4196;48.926;8.964;2023-08-24T10:56:39;4.25;;;3.83;;
8317;SDS011;4196;48.926;8.964;2023-08-24T10:59:26;4.35;;;3.85;;
8317;SDS011;4196;48.926;8.964;2023-08-24T11:02:43;4.50;;;3.70;;
8317;SDS011;4196;48.926;8.964;2023-08-24T11:05:31;4.53;;;3.67;;
8317;SDS011;4196;48.926;8.964;2023-08-24T11:08:18;6.10;;;4.20;;
8317;SDS011;4196;48.926;8.964;2023-08-24T11:11:05;6.00;;;3.92;;
8317;SDS011;4196;48.926;8.964;2023-08-24T11:14:17;9.48;;;4.38;;
8317;SDS011;4196;48.926;8.964;2023-08-24T11:17:18;6.28;;;4.13;;
8317;SDS011;4196;48.926;8.964;2023-08-24T11:20:05;9.57;;;3.88;;
8317;SDS011;4196;48.926;8.964;2023-08-24T11:22:54;4.90;;;3.83;;
8317;SDS011;4196;48.926;8.964;2023-08-24T11:25:42;5.65;;;4.07;;
8317;SDS011;4196;48.926;8.964;2023-08-24T11:28:29;11.55;;;4.28;;
8317;SDS011;4196;48.926;8.964;2023-08-24T11:31:17;5.60;;;4.35;;
8317;SDS011;4196;48.926;8.964;2023-08-24T11:34:04;4.57;;;4.10;;
8317;SDS011;4196;48.926;8.964;2023-08-24T11:36:51;5.65;;;4.20;;
8317;SDS011;4196;48.926;8.964;2023-08-24T11:39:38;5.70;;;3.88;;
8317;SDS011;4196;48.926;8.964;2023-08-24T11:42:24;5.75;;;4.45;;
8317;SDS011;4196;48.926;8.964;2023-08-24T11:45:11;7.60;;;3.85;;
8317;SDS011;4196;48.926;8.964;2023-08-24T11:47:59;5.82;;;4.38;;
8317;SDS011;4196;48.926;8.964;2023-08-24T11:50:47;7.38;;;4.20;;
8317;SDS011;4196;48.926;8.964;2023-08-24T11:53:39;7.30;;;4.43;;
8317;SDS011;4196;48.926;8.964;2023-08-24T11:56:26;5.80;;;3.90;;
8317;SDS011;4196;48.926;8.964;2023-08-24T11:59:14;9.45;;;4.47;;
8317;SDS011;4196;48.926;8.964;2023-08-24T12:02:02;6.10;;;5.13;;
8317;SDS011;4196;48.926;8.964;2023-08-24T12:04:53;5.38;;;4.18;;
8317;SDS011;4196;48.926;8.964;2023-08-24T12:07:39;4.90;;;4.50;;
8317;SDS011;4196;48.926;8.964;2023-08-24T12:10:25;8.02;;;4.60;;
8317;SDS011;4196;48.926;8.964;2023-08-24T12:13:12;5.32;;;4.22;;
8317;SDS011;4196;48.926;8.964;2023-08-24T12:15:58;8.52;;;5.38;;
8317;SDS011;4196;48.926;8.964;2023-08-24T12:21:37;8.50;;;4.55;;
8317;SDS011;4196;48.926;8.964;2023-08-24T12:24:29;7.50;;;5.30;;
8317;SDS011;4196;48.926;8.964;2023-08-24T12:27:25;5.70;;;5.07;;
8317;SDS011;4196;48.926;8.964;2023-08-24T12:30:12;7.72;;;4.80;;
8317;SDS011;4196;48.926;8.964;2023-08-24T12:33:02;8.27;;;4.95;;
8317;SDS011;4196;48.926;8.964;2023-08-24T12:35:49;6.38;;;4.60;;
8317;SDS011;4196;48.926;8.964;2023-08-24T12:38:36;5.85;;;4.28;;
8317;SDS011;4196;48.926;8.964;2023-08-24T12:41:23;6.03;;;4.35;;
8317;SDS011;4196;48.926;8.964;2023-08-24T12:44:09;8.40;;;4.40;;
8317;SDS011;4196;48.926;8.964;2023-08-24T12:47:00;8.32;;;4.75;;
8317;SDS011;4196;48.926;8.964;2023-08-24T12:49:46;7.70;;;4.78;;
8317;SDS011;4196;48.926;8.964;2023-08-24T12:52:32;9.98;;;4.80;;
8317;SDS011;4196;48.926;8.964;2023-08-24T12:55:20;8.20;;;4.68;;
8317;SDS011;4196;48.926;8.964;2023-08-24T12:58:07;5.32;;;4.53;;
8317;SDS011;4196;48.926;8.964;2023-08-24T13:00:53;8.13;;;4.72;;
8317;SDS011;4196;48.926;8.964;2023-08-24T13:03:40;5.68;;;4.35;;
8317;SDS011;4196;48.926;8.964;2023-08-24T13:06:26;7.53;;;5.10;;
8317;SDS011;4196;48.926;8.964;2023-08-24T13:09:12;6.78;;;4.43;;
8317;SDS011;4196;48.926;8.964;2023-08-24T13:12:00;8.60;;;5.13;;
8317;SDS011;4196;48.926;8.964;2023-08-24T13:14:46;5.32;;;4.70;;
8317;SDS011;4196;48.926;8.964;2023-08-24T13:17:33;6.53;;;4.63;;
8317;SDS011;4196;48.926;8.964;2023-08-24T13:20:19;11.35;;;5.95;;
8317;SDS011;4196;48.926;8.964;2023-08-24T13:23:05;6.82;;;4.63;;
8317;SDS011;4196;48.926;8.964;2023-08-24T13:25:52;5.78;;;4.50;;
8317;SDS011;4196;48.926;8.964;2023-08-24T13:28:38;8.38;;;4.40;;
8317;SDS011;4196;48.926;8.964;2023-08-24T13:31:24;5.65;;;4.28;;
8317;SDS011;4196;48.926;8.964;2023-08-24T13:34:11;7.78;;;5.38;;
8317;SDS011;4196;48.926;8.964;2023-08-24T13:36:57;6.57;;;4.63;;
8317;SDS011;4196;48.926;8.964;2023-08-24T13:39:44;6.60;;;4.75;;
8317;SDS011;4196;48.926;8.964;2023-08-24T13:42:30;5.93;;;5.03;;
8317;SDS011;4196;48.926;8.964;2023-08-24T13:45:16;8.45;;;5.13;;
8317;SDS011;4196;48.926;8.964;2023-08-24T13:48:03;8.25;;;4.45;;
8317;SDS011;4196;48.926;8.964;2023-08-24T13:50:50;9.02;;;4.60;;
8317;SDS011;4196;48.926;8.964;2023-08-24T13:53:38;6.25;;;5.03;;
8317;SDS011;4196;48.926;8.964;2023-08-24T13:56:24;8.80;;;4.53;;
8317;SDS011;4196;48.926;8.964;2023-08-24T13:59:11;6.45;;;4.28;;
8317;SDS011;4196;48.926;8.964;2023-08-24T14:01:58;5.95;;;4.68;;
8317;SDS011;4196;48.926;8.964;2023-08-24T14:04:44;6.38;;;4.93;;
8317;SDS011;4196;48.926;8.964;2023-08-24T14:07:30;11.13;;;4.78;;
8317;SDS011;4196;48.926;8.964;2023-08-24T14:10:17;9.48;;;5.20;;
8317;SDS011;4196;48.926;8.964;2023-08-24T14:13:04;8.57;;;4.78;;
8317;SDS011;4196;48.926;8.964;2023-08-24T14:15:50;10.52;;;6.07;;
8317;SDS011;4196;48.926;8.964;2023-08-24T14:18:37;7.88;;;4.80;;
8317;SDS011;4196;48.926;8.964;2023-08-24T14:21:24;9.05;;;5.00;;
8317;SDS011;4196;48.926;8.964;2023-08-24T14:24:29;5.05;;;4.47;;
8317;SDS011;4196;48.926;8.964;2023-08-24T14:27:16;8.10;;;4.72;;
8317;SDS011;4196;48.926;8.964;2023-08-24T14:30:03;8.30;;;5.05;;
8317;SDS011;4196;48.926;8.964;2023-08-24T14:32:50;8.52;;;5.00;;
8317;SDS011;4196;48.926;8.964;2023-08-24T14:35:36;7.18;;;4.65;;
8317;SDS011;4196;48.926;8.964;2023-08-24T14:38:22;7.75;;;5.28;;
8317;SDS011;4196;48.926;8.964;2023-08-24T14:41:10;10.85;;;4.93;;
8317;SDS011;4196;48.926;8.964;2023-08-24T14:43:57;7.60;;;5.20;;
8317;SDS011;4196;48.926;8.964;2023-08-24T14:46:44;8.02;;;5.38;;
8317;SDS011;4196;48.926;8.964;2023-08-24T14:49:31;16.88;;;6.40;;
8317;SDS011;4196;48.926;8.964;2023-08-24T14:52:18;7.68;;;5.30;;
8317;SDS011;4196;48.926;8.964;2023-08-24T14:55:05;10.07;;;3.55;;
8317;SDS011;4196;48.926;8.964;2023-08-24T14:57:54;6.18;;;3.47;;
8317;SDS011;4196;48.926;8.964;2023-08-24T15:00:41;4.63;;;2.50;;
8317;SDS011;4196;48.926;8.964;2023-08-24T15:03:27;9.60;;;3.80;;
8317;SDS011;4196;48.926;8.964;2023-08-24T15:06:14;4.97;;;3.77;;
8317;SDS011;4196;48.926;8.964;2023-08-24T15:09:01;8.73;;;4.07;;
8317;SDS011;4196;48.926;8.964;2023-08-24T15:11:48;6.53;;;5.10;;
8317;SDS011;4196;48.926;8.964;2023-08-24T15:14:35;11.77;;;7.50;;
8317;SDS011;4196;48.926;8.964;2023-08-24T15:17:22;10.97;;;7.80;;
8317;SDS011;4196;48.926;8.964;2023-08-24T15:20:09;13.53;;;9.73;;
8317;SDS011;4196;48.926;8.964;2023-08-24T15:22:55;16.40;;;10.33;;
8317;SDS011;4196;48.926;8.964;2023-08-24T15:25:41;12.17;;;7.70;;
8317;SDS011;4196;48.926;8.964;2023-08-24T15:28:34;9.97;;;6.27;;
8317;SDS011;4196;48.926;8.964;2023-08-24T15:31:22;12.87;;;8.17;;
8317;SDS011;4196;48.926;8.964;2023-08-24T15:34:08;10.13;;;7.53;;
8317;SDS011;4196;48.926;8.964;2023-08-24T15:36:55;13.50;;;9.57;;
8317;SDS011;4196;48.926;8.964;2023-08-24T15:39:42;11.37;;;8.50;;
8317;SDS011;4196;48.926;8.964;2023-08-24T15:42:28;13.37;;;10.50;;
8317;SDS011;4196;48.926;8.964;2023-08-24T15:45:15;13.23;;;9.80;;
8317;SDS011;4196;48.926;8.964;2023-08-24T15:48:01;15.30;;;9.40;;
8317;SDS011;4196;48.926;8.964;2023-08-24T15:50:48;11.93;;;8.73;;
8317;SDS011;4196;48.926;8.964;2023-08-24T15:53:35;14.53;;;8.53;;
8317;SDS011;4196;48.926;8.964;2023-08-24T15:56:21;18.77;;;8.33;;
8317;SDS011;4196;48.926;8.964;2023-08-24T15:59:08;10.63;;;7.40;;
8317;SDS011;4196;48.926;8.964;2023-08-24T16:01:54;7.63;;;5.23;;
8317;SDS011;4196;48.926;8.964;2023-08-24T16:04:41;5.13;;;3.33;;
8317;SDS011;4196;48.926;8.964;2023-08-24T16:07:27;9.20;;;4.50;;
8317;SDS011;4196;48.926;8.964;2023-08-24T16:10:14;7.07;;;4.83;;
8317;SDS011;4196;48.926;8.964;2023-08-24T16:13:00;8.40;;;4.63;;
8317;SDS011;4196;48.926;8.964;2023-08-24T16:15:46;9.90;;;5.30;;
8317;SDS011;4196;48.926;8.964;2023-08-24T16:18:33;8.10;;;4.37;;
8317;SDS011;4196;48.926;8.964;2023-08-24T16:21:20;6.90;;;5.20;;
8317;SDS011;4196;48.926;8.964;2023-08-24T16:24:07;9.77;;;4.83;;
8317;SDS011;4196;48.926;8.964;2023-08-24T16:26:55;5.83;;;4.97;;
8317;SDS011;4196;48.926;8.964;2023-08-24T16:29:42;6.23;;;5.10;;
8317;SDS011;4196;48.926;8.964;2023-08-24T16:32:29;8.07;;;5.03;;
8317;SDS011;4196;48.926;8.964;2023-08-24T16:35:15;11.93;;;5.33;;
8317;SDS011;4196;48.926;8.964;2023-08-24T16:38:01;7.30;;;4.77;;
8317;SDS011;4196;48.926;8.964;2023-08-24T16:40:49;8.43;;;5.67;;
8317;SDS011;4196;48.926;8.964;2023-08-24T16:43:35;6.30;;;5.37;;
8317;SDS011;4196;48.926;8.964;2023-08-24T16:46:22;8.67;;;5.63;;
8317;SDS011;4196;48.926;8.964;2023-08-24T16:49:08;8.93;;;5.73;;
8317;SDS011;4196;48.926;8.964;2023-08-24T16:51:56;8.87;;;6.00;;
8317;SDS011;4196;48.926;8.964;2023-08-24T16:54:42;12.83;;;6.77;;
8317;SDS011;4196;48.926;8.964;2023-08-24T16:57:28;8.80;;;5.80;;
8317;SDS011;4196;48.926;8.964;2023-08-24T17:00:15;12.90;;;7.03;;
8317;SDS011;4196;48.926;8.964;2023-08-24T17:03:02;6.93;;;5.77;;
8317;SDS011;4196;48.926;8.964;2023-08-24T17:05:49;9.97;;;6.17;;
8317;SDS011;4196;48.926;8.964;2023-08-24T17:08:38;7.80;;;5.70;;
8317;SDS011;4196;48.926;8.964;2023-08-24T17:11:31;8.10;;;6.17;;
8317;SDS011;4196;48.926;8.964;2023-08-24T17:15:24;8.57;;;5.70;;
8317;SDS011;4196;48.926;8.964;2023-08-24T17:18:12;10.60;;;6.50;;
8317;SDS011;4196;48.926;8.964;2023-08-24T17:21:03;8.07;;;5.77;;
8317;SDS011;4196;48.926;8.964;2023-08-24T17:23:54;7.97;;;5.27;;
8317;SDS011;4196;48.926;8.964;2023-08-24T17:27:33;7.63;;;5.30;;
8317;SDS011;4196;48.926;8.964;2023-08-24T17:30:21;7.90;;;4.93;;
8317;SDS011;4196;48.926;8.964;2023-08-24T17:33:08;7.53;;;5.47;;